createdAt,value
2018-04-16T00:01:57.360Z,13.97
2018-04-16T00:04:25.028Z,14.40
2018-04-16T00:06:53.655Z,14.37
2018-04-16T00:09:21.292Z,13.70
2018-04-16T00:11:48.988Z,14.03
2018-04-16T00:14:16.756Z,14.33
2018-04-16T00:16:44.431Z,14.40
2018-04-16T00:19:12.096Z,14.03
2018-04-16T00:21:40.308Z,13.57
2018-04-16T00:24:08.753Z,13.83
2018-04-16T00:26:36.361Z,13.03
2018-04-16T00:29:04.029Z,14.63
2018-04-16T00:34:38.473Z,13.40
2018-04-16T00:37:11.598Z,13.97
2018-04-16T00:39:44.907Z,14.17
2018-04-16T00:42:18.185Z,14.23
2018-04-16T00:44:51.479Z,14.40
2018-04-16T00:47:24.536Z,14.00
2018-04-16T00:50:12.248Z,12.67
2018-04-16T00:52:45.481Z,12.70
2018-04-16T00:55:18.680Z,11.33
2018-04-16T00:57:51.925Z,11.70
2018-04-16T01:00:40.359Z,11.53
2018-04-16T01:03:13.577Z,11.57
2018-04-16T01:05:46.830Z,11.50
2018-04-16T01:08:19.882Z,11.50
2018-04-16T01:10:53.343Z,11.23
2018-04-16T01:13:26.413Z,11.47
2018-04-16T01:15:59.572Z,10.57
2018-04-16T01:18:32.847Z,11.40
2018-04-16T01:21:06.835Z,10.27
2018-04-16T01:23:39.952Z,11.13
2018-04-16T01:26:13.228Z,11.50
2018-04-16T01:28:46.451Z,10.70
2018-04-16T01:31:20.701Z,10.83
2018-04-16T01:33:53.802Z,11.17
2018-04-16T01:36:27.095Z,10.50
2018-04-16T01:39:00.375Z,9.90
2018-04-16T01:41:33.784Z,10.40
2018-04-16T01:44:07.048Z,10.00
2018-04-16T01:46:40.504Z,10.27
2018-04-16T01:49:13.732Z,10.43
2018-04-16T01:51:47.034Z,9.70
2018-04-16T01:54:20.103Z,9.87
2018-04-16T01:56:54.357Z,9.90
2018-04-16T01:59:27.553Z,9.00
2018-04-16T02:02:00.724Z,9.47
2018-04-16T02:04:33.869Z,9.20
2018-04-16T02:07:07.035Z,8.97
2018-04-16T02:09:40.056Z,9.20
2018-04-16T02:12:14.053Z,9.00
2018-04-16T02:14:47.189Z,8.80
2018-04-16T02:17:20.486Z,8.97
2018-04-16T02:22:58.028Z,8.30
2018-04-16T02:25:31.112Z,8.97
2018-04-16T02:28:04.274Z,8.93
2018-04-16T02:30:37.452Z,9.03
2018-04-16T02:33:10.895Z,9.23
2018-04-16T02:35:44.118Z,8.07
2018-04-16T02:38:17.329Z,9.60
2018-04-16T02:40:50.422Z,9.00
2018-04-16T02:43:23.757Z,9.03
2018-04-16T02:45:57.604Z,8.93
2018-04-16T02:48:30.755Z,8.67
2018-04-16T02:51:04.232Z,8.57
2018-04-16T02:53:37.550Z,8.57
2018-04-16T02:56:10.873Z,8.60
2018-04-16T02:58:44.047Z,9.00
2018-04-16T03:01:17.245Z,8.80
2018-04-16T03:03:50.521Z,7.90
2018-04-16T03:06:25.224Z,8.13
2018-04-16T03:08:58.465Z,8.00
2018-04-16T03:11:31.689Z,7.57
2018-04-16T03:14:05.856Z,7.83
2018-04-16T03:16:39.063Z,8.00
2018-04-16T03:19:12.317Z,8.03
2018-04-16T03:21:45.392Z,7.43
2018-04-16T03:24:18.550Z,7.67
2018-04-16T03:26:51.638Z,7.50
2018-04-16T03:29:24.855Z,8.10
2018-04-16T03:31:58.005Z,7.70
2018-04-16T03:34:31.907Z,7.70
2018-04-16T03:37:05.140Z,7.97
2018-04-16T03:39:38.519Z,8.00
2018-04-16T03:42:11.589Z,7.80
2018-04-16T03:44:45.434Z,7.67
2018-04-16T03:47:18.551Z,7.37
2018-04-16T03:49:51.937Z,7.57
2018-04-16T03:52:26.080Z,7.87
2018-04-16T03:54:54.265Z,7.70
2018-04-16T03:57:21.853Z,7.27
2018-04-16T03:59:49.500Z,7.10
2018-04-16T04:02:17.192Z,7.63
2018-04-16T04:04:44.807Z,7.07
2018-04-16T04:07:12.392Z,7.20
2018-04-16T04:09:40.189Z,7.47
2018-04-16T04:12:08.793Z,7.23
2018-04-16T04:14:36.372Z,7.70
2018-04-16T04:17:04.042Z,6.83
2018-04-16T04:19:31.632Z,7.17
2018-04-16T04:21:59.228Z,7.47
2018-04-16T04:24:38.658Z,7.50
2018-04-16T04:27:27.017Z,8.37
2018-04-16T04:30:06.441Z,8.90
2018-04-16T04:32:34.034Z,8.33
2018-04-16T04:35:01.615Z,7.83
2018-04-16T04:37:29.325Z,8.30
2018-04-16T04:39:56.941Z,8.27
2018-04-16T04:42:24.535Z,7.93
2018-04-16T04:44:52.278Z,7.77
2018-04-16T04:47:19.876Z,7.60
2018-04-16T04:49:47.516Z,7.57
2018-04-16T04:52:15.612Z,9.40
2018-04-16T04:54:43.443Z,9.07
2018-04-16T04:57:11.081Z,7.67
2018-04-16T04:59:38.717Z,7.00
2018-04-16T05:02:06.929Z,7.70
2018-04-16T05:04:34.511Z,7.97
2018-04-16T05:07:02.180Z,7.53
2018-04-16T05:09:29.820Z,7.70
2018-04-16T05:11:57.464Z,7.60
2018-04-16T05:14:25.114Z,8.57
2018-04-16T05:16:52.692Z,7.97
2018-04-16T05:19:20.276Z,8.07
2018-04-16T05:21:47.913Z,8.40
2018-04-16T05:24:15.563Z,10.17
2018-04-16T05:26:43.163Z,8.40
2018-04-16T05:29:10.928Z,8.10
2018-04-16T05:31:38.582Z,8.70
2018-04-16T05:34:06.161Z,8.20
2018-04-16T05:36:33.876Z,7.90
2018-04-16T05:39:01.486Z,7.70
2018-04-16T05:41:29.136Z,7.93
2018-04-16T05:43:56.773Z,7.17
2018-04-16T05:46:24.404Z,8.80
2018-04-16T05:48:52.048Z,6.97
2018-04-16T05:51:19.782Z,6.63
2018-04-16T05:53:47.451Z,7.13
2018-04-16T05:56:15.320Z,7.47
2018-04-16T05:58:42.956Z,7.43
2018-04-16T06:01:10.596Z,6.90
2018-04-16T06:03:38.251Z,7.50
2018-04-16T06:06:06.048Z,6.50
2018-04-16T06:08:33.662Z,7.40
2018-04-16T06:11:01.320Z,6.80
2018-04-16T06:13:29.172Z,6.80
2018-04-16T06:15:56.831Z,6.33
2018-04-16T06:18:24.464Z,6.20
2018-04-16T06:20:52.115Z,6.30
2018-04-16T06:23:19.796Z,6.20
2018-04-16T06:25:47.424Z,6.30
2018-04-16T06:28:15.146Z,6.03
2018-04-16T06:30:42.729Z,5.30
2018-04-16T06:33:10.313Z,5.87
2018-04-16T06:35:37.996Z,5.83
2018-04-16T06:38:06.367Z,5.27
2018-04-16T06:40:33.972Z,5.00
2018-04-16T06:43:01.773Z,5.33
2018-04-16T06:45:29.441Z,6.17
2018-04-16T06:47:57.026Z,5.80
2018-04-16T06:50:24.743Z,5.67
2018-04-16T06:52:52.385Z,5.27
2018-04-16T06:55:20.037Z,6.10
2018-04-16T06:57:48.324Z,5.53
2018-04-16T07:00:15.946Z,5.63
2018-04-16T07:02:43.530Z,5.40
2018-04-16T07:05:11.191Z,5.83
2018-04-16T07:07:38.787Z,5.93
2018-04-16T07:10:06.432Z,5.70
2018-04-16T07:12:34.144Z,5.60
2018-04-16T07:15:02.549Z,5.23
2018-04-16T07:17:30.189Z,5.67
2018-04-16T07:19:57.933Z,5.30
2018-04-16T07:22:25.511Z,5.20
2018-04-16T07:24:53.086Z,5.43
2018-04-16T07:27:20.852Z,5.10
2018-04-16T07:29:48.451Z,5.53
2018-04-16T07:32:16.094Z,5.77
2018-04-16T07:34:44.157Z,5.03
2018-04-16T07:37:11.760Z,5.30
2018-04-16T07:39:39.339Z,5.07
2018-04-16T07:42:06.965Z,5.47
2018-04-16T07:44:34.617Z,5.60
2018-04-16T07:47:02.257Z,4.77
2018-04-16T07:54:19.540Z,4.77
2018-04-16T07:56:47.258Z,4.70
2018-04-16T07:59:15.039Z,5.30
2018-04-16T08:01:42.624Z,5.13
2018-04-16T08:04:10.318Z,4.83
2018-04-16T08:06:38.006Z,4.60
2018-04-16T08:09:07.464Z,4.70
2018-04-16T08:11:35.173Z,4.40
2018-04-16T08:14:02.778Z,4.40
2018-04-16T08:16:30.429Z,4.67
2018-04-16T08:18:58.056Z,4.70
2018-04-16T08:21:25.700Z,4.10
2018-04-16T08:23:53.279Z,4.13
2018-04-16T08:26:20.998Z,6.57
2018-04-16T08:28:48.595Z,4.80
2018-04-16T08:31:16.202Z,4.60
2018-04-16T08:33:43.973Z,4.93
2018-04-16T08:36:11.615Z,4.67
2018-04-16T08:38:39.188Z,4.67
2018-04-16T08:41:06.907Z,4.60
2018-04-16T08:43:34.487Z,4.30
2018-04-16T08:46:02.117Z,3.67
2018-04-16T08:48:29.844Z,4.07
2018-04-16T08:50:57.420Z,3.57
2018-04-16T08:53:24.996Z,3.63
2018-04-16T08:55:52.619Z,3.43
2018-04-16T08:58:20.217Z,3.90
2018-04-16T09:00:47.891Z,4.83
2018-04-16T09:03:15.600Z,3.60
2018-04-16T09:05:43.184Z,3.60
2018-04-16T09:08:12.435Z,3.63
2018-04-16T09:10:40.175Z,3.60
2018-04-16T09:13:07.814Z,3.50
2018-04-16T09:15:35.440Z,3.83
2018-04-16T09:18:03.066Z,4.07
2018-04-16T09:20:30.680Z,3.33
2018-04-16T09:22:58.278Z,3.57
2018-04-16T09:25:25.985Z,3.97
2018-04-16T09:27:53.636Z,3.83
2018-04-16T09:30:21.216Z,3.37
2018-04-16T09:32:48.841Z,3.77
2018-04-16T09:35:16.478Z,3.20
2018-04-16T09:37:44.125Z,3.70
2018-04-16T09:40:11.876Z,3.40
2018-04-16T09:42:39.467Z,3.33
2018-04-16T09:45:07.101Z,3.40
2018-04-16T09:47:34.948Z,3.20
2018-04-16T09:50:02.596Z,3.60
2018-04-16T09:52:30.231Z,3.40
2018-04-16T09:54:57.860Z,3.57
2018-04-16T09:57:25.440Z,3.27
2018-04-16T09:59:53.092Z,3.93
2018-04-16T10:02:25.913Z,8.97
2018-04-16T10:04:53.502Z,3.70
2018-04-16T10:07:21.083Z,3.40
2018-04-16T10:09:48.718Z,3.20
2018-04-16T10:12:16.345Z,3.13
2018-04-16T10:14:43.924Z,3.17
2018-04-16T10:17:11.549Z,3.30
2018-04-16T10:19:39.196Z,3.50
2018-04-16T10:22:06.844Z,2.87
2018-04-16T10:24:34.511Z,3.43
2018-04-16T10:27:02.196Z,4.10
2018-04-16T10:29:29.845Z,3.10
2018-04-16T10:31:57.648Z,3.23
2018-04-16T10:34:25.267Z,3.17
2018-04-16T10:36:52.879Z,3.30
2018-04-16T10:39:20.520Z,3.13
2018-04-16T10:41:48.157Z,3.10
2018-04-16T10:44:15.743Z,3.23
2018-04-16T10:46:43.473Z,3.00
2018-04-16T10:49:11.069Z,3.20
2018-04-16T10:51:38.710Z,3.70
2018-04-16T10:54:06.474Z,3.50
2018-04-16T10:56:34.051Z,3.20
2018-04-16T10:59:01.630Z,3.10
2018-04-16T11:01:29.401Z,3.10
2018-04-16T11:03:57.237Z,3.30
2018-04-16T11:06:24.832Z,3.37
2018-04-16T11:08:52.499Z,3.20
2018-04-16T11:11:20.168Z,3.57
2018-04-16T11:13:47.782Z,3.27
2018-04-16T11:16:16.333Z,3.40
2018-04-16T11:18:43.978Z,3.50
2018-04-16T11:21:11.557Z,3.70
2018-04-16T11:23:39.231Z,3.43
2018-04-16T11:26:06.885Z,3.70
2018-04-16T11:28:34.476Z,3.50
2018-04-16T11:31:02.525Z,3.33
2018-04-16T11:33:30.190Z,3.70
2018-04-16T11:35:57.785Z,3.80
2018-04-16T11:38:25.508Z,11.07
2018-04-16T11:40:53.441Z,4.20
2018-04-16T11:43:21.032Z,3.70
2018-04-16T11:45:48.673Z,3.90
2018-04-16T11:48:16.272Z,9.03
2018-04-16T11:50:43.912Z,5.20
2018-04-16T11:53:11.664Z,4.60
2018-04-16T11:55:39.263Z,3.67
2018-04-16T11:58:06.884Z,3.77
2018-04-16T12:00:34.632Z,3.80
2018-04-16T12:03:02.222Z,3.40
2018-04-16T12:05:29.861Z,3.23
2018-04-16T12:07:57.579Z,3.53
2018-04-16T12:10:25.223Z,3.77
2018-04-16T12:12:52.800Z,3.37
2018-04-16T12:15:20.504Z,3.70
2018-04-16T12:17:48.164Z,3.67
2018-04-16T12:20:15.833Z,3.63
2018-04-16T12:22:43.488Z,3.70
2018-04-16T12:25:11.053Z,4.57
2018-04-16T12:27:38.633Z,3.60
2018-04-16T12:30:06.374Z,3.20
2018-04-16T12:32:33.951Z,3.37
2018-04-16T12:35:01.584Z,3.70
2018-04-16T12:37:29.279Z,3.97
2018-04-16T12:39:56.939Z,3.47
2018-04-16T12:42:24.518Z,3.30
2018-04-16T12:44:52.233Z,4.17
2018-04-16T12:47:19.820Z,3.87
2018-04-16T12:49:47.391Z,3.73
2018-04-16T12:52:15.172Z,3.60
2018-04-16T12:54:42.796Z,3.60
2018-04-16T12:57:10.380Z,3.70
2018-04-16T12:59:37.999Z,3.90
2018-04-16T13:02:05.596Z,3.90
2018-04-16T13:04:33.217Z,4.00
2018-04-16T13:07:01.064Z,9.53
2018-04-16T13:09:28.663Z,3.60
2018-04-16T13:11:57.192Z,3.60
2018-04-16T13:14:24.892Z,3.57
2018-04-16T13:16:52.520Z,3.93
2018-04-16T13:19:20.101Z,4.10
2018-04-16T13:21:47.752Z,11.77
2018-04-16T13:24:15.329Z,4.33
2018-04-16T13:26:42.958Z,3.57
2018-04-16T13:29:10.648Z,3.53
2018-04-16T13:31:38.220Z,3.40
2018-04-16T13:34:05.825Z,3.27
2018-04-16T13:36:33.486Z,3.20
2018-04-16T13:39:01.057Z,3.37
2018-04-16T13:41:28.640Z,3.50
2018-04-16T13:43:56.361Z,3.13
2018-04-16T13:46:23.958Z,3.50
2018-04-16T13:48:51.562Z,2.93
2018-04-16T13:51:19.184Z,3.20
2018-04-16T13:53:46.821Z,3.23
2018-04-16T13:56:14.424Z,3.30
2018-04-16T13:58:42.058Z,2.87
2018-04-16T14:01:09.651Z,3.47
2018-04-16T14:03:37.288Z,2.97
2018-04-16T14:06:04.925Z,3.17
2018-04-16T14:08:32.579Z,3.50
2018-04-16T14:11:00.211Z,3.57
2018-04-16T14:13:27.836Z,3.03
2018-04-16T14:15:56.369Z,4.07
2018-04-16T14:18:23.968Z,4.00
2018-04-16T14:20:51.664Z,3.70
2018-04-16T14:23:19.326Z,3.53
2018-04-16T14:25:46.916Z,3.40
2018-04-16T14:28:14.687Z,3.10
2018-04-16T14:30:42.282Z,3.37
2018-04-16T14:33:09.861Z,3.47
2018-04-16T14:35:37.588Z,4.00
2018-04-16T14:38:05.328Z,9.83
2018-04-16T14:40:32.941Z,3.80
2018-04-16T14:43:00.704Z,3.90
2018-04-16T14:45:28.397Z,4.60
2018-04-16T14:47:56.041Z,3.90
2018-04-16T14:50:23.980Z,3.83
2018-04-16T14:52:51.564Z,4.10
2018-04-16T14:55:19.224Z,3.87
2018-04-16T14:57:46.957Z,3.53
2018-04-16T15:00:14.556Z,4.57
2018-04-16T15:02:42.205Z,3.67
2018-04-16T15:05:10.732Z,3.20
2018-04-16T15:07:38.414Z,3.70
2018-04-16T15:10:06.293Z,4.10
2018-04-16T15:12:34.032Z,4.20
2018-04-16T15:15:01.647Z,4.50
2018-04-16T15:17:29.220Z,5.03
2018-04-16T15:19:56.868Z,5.50
2018-04-16T15:22:24.513Z,5.03
2018-04-16T15:24:52.161Z,3.57
2018-04-16T15:27:19.856Z,3.70
2018-04-16T15:29:47.492Z,4.40
2018-04-16T15:32:15.101Z,6.50
2018-04-16T15:34:42.781Z,4.17
2018-04-16T15:37:10.411Z,4.20
2018-04-16T15:39:38.026Z,4.10
2018-04-16T15:42:05.716Z,4.80
2018-04-16T15:44:33.285Z,3.90
2018-04-16T15:47:01.011Z,4.17
2018-04-16T15:49:28.825Z,4.40
2018-04-16T15:51:56.523Z,3.57
2018-04-16T15:54:24.143Z,3.43
2018-04-16T15:56:51.872Z,5.90
2018-04-16T15:59:19.556Z,5.30
2018-04-16T16:01:47.139Z,6.33
2018-04-16T16:04:14.766Z,3.77
2018-04-16T16:06:42.383Z,3.53
2018-04-16T16:09:10.044Z,3.70
2018-04-16T16:11:37.936Z,4.07
2018-04-16T16:14:05.626Z,7.20
2018-04-16T16:16:33.828Z,6.47
2018-04-16T16:19:01.511Z,4.13
2018-04-16T16:21:29.092Z,3.80
2018-04-16T16:23:56.719Z,3.87
2018-04-16T16:26:24.507Z,3.60
2018-04-16T16:28:52.097Z,4.03
2018-04-16T16:31:19.736Z,3.63
2018-04-16T16:33:47.352Z,3.90
2018-04-16T16:36:14.932Z,4.07
2018-04-16T16:38:42.592Z,3.57
2018-04-16T16:41:10.324Z,4.00
2018-04-16T16:43:37.908Z,4.10
2018-04-16T16:46:05.491Z,4.37
2018-04-16T16:48:35.907Z,4.77
2018-04-16T16:51:03.529Z,5.20
2018-04-16T16:53:31.107Z,5.27
2018-04-16T16:55:58.748Z,5.90
2018-04-16T16:58:26.337Z,5.07
2018-04-16T17:00:53.936Z,6.73
2018-04-16T17:03:21.643Z,8.07
2018-04-16T17:05:49.250Z,3.73
2018-04-16T17:08:16.856Z,7.77
2018-04-16T17:10:44.580Z,5.10
2018-04-16T17:13:12.424Z,5.53
2018-04-16T17:15:40.012Z,8.87
2018-04-16T17:18:07.637Z,7.03
2018-04-16T17:20:35.308Z,7.57
2018-04-16T17:23:02.883Z,7.30
2018-04-16T17:25:30.581Z,15.27
2018-04-16T17:27:58.261Z,11.20
2018-04-16T17:30:25.914Z,7.57
2018-04-16T17:32:53.623Z,4.40
2018-04-16T17:35:21.261Z,4.57
2018-04-16T17:37:48.906Z,4.10
2018-04-16T17:40:16.533Z,4.43
2018-04-16T17:42:44.120Z,4.00
2018-04-16T17:45:11.718Z,4.80
2018-04-16T17:47:39.447Z,4.93
2018-04-16T17:50:07.027Z,5.10
2018-04-16T17:52:34.656Z,5.00
2018-04-16T17:55:02.409Z,4.73
2018-04-16T17:57:29.987Z,4.43
2018-04-16T17:59:57.581Z,3.80
2018-04-16T18:02:25.273Z,3.57
2018-04-16T18:04:52.861Z,3.60
2018-04-16T18:07:20.507Z,3.83
2018-04-16T18:09:48.221Z,3.80
2018-04-16T18:12:16.131Z,3.63
2018-04-16T18:14:43.854Z,3.53
2018-04-16T18:17:11.539Z,4.00
2018-04-16T18:19:39.180Z,3.87
2018-04-16T18:22:06.764Z,3.87
2018-04-16T18:24:34.495Z,3.30
2018-04-16T18:27:02.106Z,4.00
2018-04-16T18:29:29.789Z,7.60
2018-04-16T18:31:57.452Z,5.70
2018-04-16T18:34:25.105Z,4.77
2018-04-16T18:36:52.689Z,4.67
2018-04-16T18:39:20.439Z,5.50
2018-04-16T18:41:48.092Z,5.27
2018-04-16T18:44:15.744Z,5.37
2018-04-16T18:46:43.376Z,4.73
2018-04-16T18:49:10.983Z,4.67
2018-04-16T18:51:38.575Z,4.27
2018-04-16T18:54:06.205Z,4.90
2018-04-16T18:56:33.795Z,4.90
2018-04-16T18:59:01.376Z,5.33
2018-04-16T19:01:31.293Z,5.20
2018-04-16T19:03:58.925Z,5.43
2018-04-16T19:06:26.499Z,4.60
2018-04-16T19:08:54.128Z,5.23
2018-04-16T19:11:21.743Z,5.17
2018-04-16T19:13:49.308Z,4.70
2018-04-16T19:16:17.200Z,4.73
2018-04-16T19:18:44.783Z,5.00
2018-04-16T19:24:17.646Z,4.80
2018-04-16T19:26:50.962Z,5.00
2018-04-16T19:29:18.540Z,4.33
2018-04-16T19:31:46.135Z,4.70
2018-04-16T19:34:19.416Z,4.23
2018-04-16T19:36:47.061Z,4.67
2018-04-16T19:39:17.454Z,4.67
2018-04-16T19:41:51.581Z,4.60
2018-04-16T19:44:19.162Z,4.87
2018-04-16T19:46:46.737Z,5.03
2018-04-16T19:49:20.036Z,4.83
2018-04-16T19:51:47.620Z,5.03
2018-04-16T19:54:15.273Z,5.17
2018-04-16T19:56:48.459Z,4.80
2018-04-16T19:59:16.030Z,4.80
2018-04-16T20:01:43.655Z,5.60
2018-04-16T20:04:11.393Z,5.20
2018-04-16T20:06:38.978Z,5.30
2018-04-16T20:09:06.616Z,5.87
2018-04-16T20:11:34.312Z,6.43
2018-04-16T20:14:04.668Z,6.47
2018-04-16T20:16:32.336Z,7.00
2018-04-16T20:18:59.990Z,7.27
2018-04-16T20:21:27.579Z,6.30
2018-04-16T20:23:55.232Z,6.03
2018-04-16T20:26:22.928Z,10.43
2018-04-16T20:28:50.535Z,13.87
2018-04-16T20:31:18.200Z,9.40
2018-04-16T20:33:46.035Z,6.50
2018-04-16T20:36:13.623Z,5.13
2018-04-16T20:38:41.269Z,5.50
2018-04-16T20:41:09.850Z,5.40
2018-04-16T20:43:37.497Z,5.10
2018-04-16T20:46:05.154Z,4.43
2018-04-16T20:48:32.933Z,3.80
2018-04-16T20:51:00.584Z,3.70
2018-04-16T20:53:28.176Z,3.50
2018-04-16T20:55:58.483Z,3.03
2018-04-16T20:58:26.078Z,3.30
2018-04-16T21:00:53.703Z,3.30
2018-04-16T21:03:21.488Z,3.70
2018-04-16T21:05:49.137Z,3.40
2018-04-16T21:08:16.785Z,3.40
2018-04-16T21:10:44.607Z,3.77
2018-04-16T21:13:12.216Z,3.57
2018-04-16T21:15:39.828Z,7.50
2018-04-16T21:18:08.045Z,11.83
2018-04-16T21:20:35.646Z,8.00
2018-04-16T21:23:03.281Z,3.70
2018-04-16T21:25:30.996Z,3.13
2018-04-16T21:27:58.582Z,2.93
2018-04-16T21:30:26.195Z,3.30
2018-04-16T21:32:53.853Z,3.20
2018-04-16T21:35:21.452Z,3.20
2018-04-16T21:37:49.086Z,3.43
2018-04-16T21:40:16.781Z,3.17
2018-04-16T21:42:44.368Z,3.10
2018-04-16T21:45:11.938Z,2.87
2018-04-16T21:47:40.417Z,3.23
2018-04-16T21:50:08.853Z,3.43
2018-04-16T21:52:36.517Z,3.60
2018-04-16T21:55:04.255Z,4.20
2018-04-16T21:57:31.832Z,4.53
2018-04-16T21:59:59.419Z,4.60
2018-04-16T22:02:27.197Z,4.70
2018-04-16T22:04:54.770Z,4.87
2018-04-16T22:07:22.413Z,4.70
2018-04-16T22:09:50.044Z,4.80
2018-04-16T22:12:17.681Z,5.10
2018-04-16T22:14:45.329Z,4.73
2018-04-16T22:17:12.943Z,4.80
2018-04-16T22:19:40.596Z,4.87
2018-04-16T22:22:08.180Z,4.67
2018-04-16T22:24:35.978Z,4.57
2018-04-16T22:27:03.556Z,5.47
2018-04-16T22:29:31.131Z,4.63
2018-04-16T22:31:58.816Z,4.60
2018-04-16T22:34:26.478Z,4.30
2018-04-16T22:36:54.060Z,4.70
2018-04-16T22:39:21.771Z,4.77
2018-04-16T22:41:49.356Z,4.37
2018-04-16T22:44:16.938Z,4.77
2018-04-16T22:46:44.668Z,4.83
2018-04-16T22:49:12.321Z,4.70
2018-04-16T22:51:39.985Z,4.83
2018-04-16T22:54:07.643Z,4.27
2018-04-16T22:56:35.296Z,4.13
2018-04-16T22:59:02.957Z,4.30
2018-04-16T23:01:30.764Z,3.97
2018-04-16T23:03:58.408Z,4.27
2018-04-16T23:06:26.068Z,4.17
2018-04-16T23:08:53.790Z,4.30
2018-04-16T23:11:21.381Z,4.30
2018-04-16T23:13:48.984Z,4.20
2018-04-16T23:16:16.622Z,4.73
2018-04-16T23:18:44.276Z,4.40
2018-04-16T23:21:11.992Z,5.00
2018-04-16T23:23:39.623Z,5.60
2018-04-16T23:26:07.255Z,5.37
2018-04-16T23:28:34.825Z,4.20
2018-04-16T23:31:02.505Z,4.27
2018-04-16T23:33:30.090Z,5.30
2018-04-16T23:35:57.720Z,5.00
2018-04-16T23:38:25.437Z,5.03
2018-04-16T23:40:53.036Z,4.60
2018-04-16T23:43:20.612Z,5.03
2018-04-16T23:45:48.332Z,5.00
2018-04-16T23:48:15.979Z,5.17
2018-04-16T23:50:43.571Z,5.10
2018-04-16T23:53:11.353Z,5.20
2018-04-16T23:55:38.985Z,5.50
2018-04-16T23:58:06.611Z,5.77
